Time;durP1;ratioP1;P1;durP2;ratioP2;P2;SDS_P1;SDS_P2;PMS_P1;PMS_P2;Temp;Humidity;BMP_temperature;BMP_pressure;BME280_temperature;BME280_humidity;BME280_pressure;Samples;Min_cycle;Max_cycle;Signal;HPM_P1;HPM_P2
2022/03/12 00:00:46;;;;;;;6.95;5.80;;;18.20;47.30;;;;;;4969116;28;92655;-66
2022/03/12 00:03:12;;;;;;;6.43;5.38;;;18.20;47.20;;;;;;4967992;28;93629;-66
2022/03/12 00:05:38;;;;;;;6.50;5.53;;;18.20;47.20;;;;;;4969883;28;94114;-66
2022/03/12 00:08:04;;;;;;;7.03;5.50;;;18.20;47.20;;;;;;4970059;28;93168;-66
2022/03/12 00:10:32;;;;;;;7.35;5.50;;;18.10;47.20;;;;;;4971878;28;92960;-66
2022/03/12 00:13:02;;;;;;;5.78;5.18;;;18.10;47.20;;;;;;4973206;28;92085;-66
2022/03/12 00:15:35;;;;;;;7.03;5.47;;;18.10;47.20;;;;;;4972182;28;92852;-66
2022/03/12 00:18:01;;;;;;;5.97;5.38;;;18.10;47.20;;;;;;4972492;28;94817;-66
2022/03/12 00:20:29;;;;;;;5.88;5.22;;;18.10;47.20;;;;;;4972064;28;95338;-66
2022/03/12 00:22:56;;;;;;;6.68;5.47;;;18.10;47.20;;;;;;4972705;28;92730;-66
2022/03/12 00:25:24;;;;;;;6.05;5.25;;;18.10;47.10;;;;;;4973441;28;94771;-66
2022/03/12 00:27:51;;;;;;;8.38;6.13;;;18.10;47.10;;;;;;4972088;28;94954;-66
2022/03/12 00:30:24;;;;;;;7.07;5.13;;;18.10;47.10;;;;;;4973395;28;93079;-66
2022/03/12 00:32:53;;;;;;;6.45;5.10;;;18.10;47.00;;;;;;4971952;28;93206;-66
2022/03/12 00:35:20;;;;;;;6.68;5.15;;;18.10;47.00;;;;;;4971558;28;95136;-66
2022/03/12 00:37:47;;;;;;;6.88;5.70;;;18.10;47.00;;;;;;4970511;28;93000;-66
2022/03/12 00:40:15;;;;;;;6.22;4.97;;;18.10;46.90;;;;;;4971389;28;94309;-66
2022/03/12 00:42:41;;;;;;;5.80;5.20;;;18.10;47.00;;;;;;4971502;28;92898;-66
2022/03/12 00:45:07;;;;;;;7.70;5.30;;;18.10;46.90;;;;;;4969195;28;96304;-66
2022/03/12 00:47:33;;;;;;;7.07;5.40;;;18.00;46.90;;;;;;4971550;28;96853;-66
2022/03/12 00:49:59;;;;;;;5.40;4.88;;;18.00;46.90;;;;;;4972030;28;92874;-66
2022/03/12 00:52:25;;;;;;;6.03;5.18;;;18.00;46.90;;;;;;4972317;28;93128;-66
2022/03/12 00:54:51;;;;;;;8.02;5.72;;;18.00;46.80;;;;;;4971732;28;94215;-66
2022/03/12 00:57:17;;;;;;;6.60;5.40;;;18.10;46.80;;;;;;4971504;28;94162;-66
2022/03/12 00:59:44;;;;;;;6.43;5.22;;;18.00;46.70;;;;;;4972276;28;92724;-66
2022/03/12 01:02:17;;;;;;;5.88;5.22;;;18.00;46.70;;;;;;4971446;28;92599;-66
2022/03/12 01:04:43;;;;;;;7.32;5.57;;;18.00;46.70;;;;;;4972108;28;94347;-66
2022/03/12 01:07:10;;;;;;;6.40;5.30;;;18.00;46.70;;;;;;4971455;28;93872;-66
2022/03/12 01:09:38;;;;;;;5.97;5.38;;;18.00;46.60;;;;;;4970168;28;95158;-66
2022/03/12 01:12:08;;;;;;;7.30;5.25;;;18.00;46.60;;;;;;4971888;28;92487;-66
2022/03/12 01:14:37;;;;;;;5.53;5.00;;;18.00;46.60;;;;;;4971113;28;93693;-66
2022/03/12 01:17:05;;;;;;;5.68;5.10;;;18.00;46.60;;;;;;4971714;28;93529;-66
2022/03/12 01:19:31;;;;;;;5.50;4.90;;;18.00;46.60;;;;;;4971039;28;92465;-66
2022/03/12 01:21:57;;;;;;;6.53;5.07;;;18.00;46.50;;;;;;4971190;28;93072;-66
2022/03/12 01:24:22;;;;;;;6.13;4.97;;;18.00;46.60;;;;;;4970913;28;93056;-66
2022/03/12 01:26:48;;;;;;;5.57;4.65;;;18.00;46.60;;;;;;4971206;28;92589;-66
2022/03/12 01:29:13;;;;;;;6.38;5.47;;;18.00;46.50;;;;;;4971028;28;92979;-66
2022/03/12 01:31:39;;;;;;;6.05;5.00;;;18.00;46.50;;;;;;4970914;28;96458;-66
2022/03/12 01:34:05;;;;;;;6.13;5.07;;;17.90;46.40;;;;;;4970130;28;95757;-66
2022/03/12 01:36:31;;;;;;;5.75;4.90;;;17.90;46.40;;;;;;4955053;28;102475;-66
2022/03/12 01:38:59;;;;;;;6.10;4.78;;;17.90;46.40;;;;;;4972396;28;92918;-66
2022/03/12 01:41:28;;;;;;;5.88;5.20;;;18.00;46.40;;;;;;4970764;28;92596;-66
2022/03/12 01:43:55;;;;;;;5.75;5.15;;;17.90;46.30;;;;;;4970435;28;94377;-66
2022/03/12 01:46:34;;;;;;;5.30;4.80;;;17.90;46.30;;;;;;4969846;28;92936;-66
2022/03/12 01:49:16;;;;;;;6.35;5.30;;;17.90;46.20;;;;;;4971318;28;92812;-66
2022/03/12 01:51:44;;;;;;;6.22;4.53;;;17.90;46.20;;;;;;4970539;28;92951;-66
2022/03/12 01:54:10;;;;;;;5.90;4.90;;;17.90;46.30;;;;;;4971004;28;93136;-66
2022/03/12 01:56:37;;;;;;;5.25;4.75;;;17.90;46.30;;;;;;4952590;28;96317;-66
2022/03/12 01:59:03;;;;;;;5.97;4.57;;;17.90;46.30;;;;;;4970341;28;95178;-66
2022/03/12 02:01:30;;;;;;;5.85;4.57;;;17.90;46.20;;;;;;4971119;28;92605;-66
2022/03/12 02:03:56;;;;;;;5.97;4.57;;;17.90;46.20;;;;;;4970553;28;94386;-66
2022/03/12 02:06:23;;;;;;;5.85;4.80;;;17.90;46.20;;;;;;4970917;28;92905;-66
2022/03/12 02:08:54;;;;;;;5.43;4.45;;;17.90;46.10;;;;;;4970440;28;92936;-66
2022/03/12 02:11:29;;;;;;;5.65;4.60;;;17.90;46.10;;;;;;4970075;28;92898;-66
2022/03/12 02:14:11;;;;;;;6.95;4.95;;;17.90;46.10;;;;;;4970519;28;93415;-66
2022/03/12 02:16:37;;;;;;;5.85;4.93;;;17.90;46.10;;;;;;4970311;28;95568;-66
2022/03/12 02:19:03;;;;;;;5.32;4.53;;;17.80;46.10;;;;;;4969685;28;92958;-66
2022/03/12 02:21:38;;;;;;;5.72;4.57;;;17.80;46.10;;;;;;4970113;28;92629;-66
2022/03/12 02:24:15;;;;;;;5.15;4.65;;;17.80;45.90;;;;;;4968699;28;95415;-66
2022/03/12 02:26:43;;;;;;;6.15;4.68;;;17.80;45.90;;;;;;4970181;28;95278;-66
2022/03/12 02:29:12;;;;;;;7.18;5.10;;;17.80;46.00;;;;;;4970428;28;92573;-66
2022/03/12 02:31:48;;;;;;;4.95;4.45;;;17.80;46.00;;;;;;4970193;28;92977;-66
2022/03/12 02:34:13;;;;;;;6.20;4.28;;;17.80;45.80;;;;;;4970197;28;94568;-65
2022/03/12 02:36:40;;;;;;;5.72;5.13;;;17.80;46.00;;;;;;4970082;28;93846;-66
2022/03/12 02:39:07;;;;;;;5.68;4.60;;;17.80;45.90;;;;;;4970473;28;92490;-66
2022/03/12 02:41:33;;;;;;;5.50;4.90;;;17.80;45.80;;;;;;4970615;28;92198;-66
2022/03/12 02:44:00;;;;;;;5.78;4.55;;;17.80;45.90;;;;;;4969954;28;94422;-66
2022/03/12 02:46:31;;;;;;;5.45;4.68;;;17.80;45.90;;;;;;4968588;28;92580;-66
2022/03/12 02:48:57;;;;;;;5.32;4.63;;;17.80;45.80;;;;;;4969409;28;95325;-66
2022/03/12 02:51:25;;;;;;;5.00;4.32;;;17.80;45.90;;;;;;4970299;28;93092;-66
2022/03/12 02:53:53;;;;;;;6.45;4.80;;;17.80;46.00;;;;;;4969954;28;94656;-66
2022/03/12 02:56:19;;;;;;;5.57;4.60;;;17.80;45.90;;;;;;4969073;28;93712;-66
2022/03/12 02:58:45;;;;;;;5.63;4.88;;;17.80;45.90;;;;;;4970325;28;92532;-66
2022/03/12 03:01:14;;;;;;;6.38;4.43;;;17.70;45.90;;;;;;4970121;28;92577;-66
2022/03/12 03:03:42;;;;;;;7.05;5.03;;;17.70;45.80;;;;;;4969305;28;94133;-66
2022/03/12 03:06:08;;;;;;;5.97;4.90;;;17.80;45.80;;;;;;4970762;28;93479;-66
2022/03/12 03:08:36;;;;;;;5.40;4.80;;;17.70;45.80;;;;;;4970333;28;92634;-65
2022/03/12 03:11:12;;;;;;;5.38;4.88;;;17.70;45.80;;;;;;4971107;28;92930;-64
2022/03/12 03:13:44;;;;;;;6.35;5.45;;;17.70;45.80;;;;;;4969161;28;96617;-66
2022/03/12 03:16:18;;;;;;;6.50;5.25;;;17.70;45.80;;;;;;4969156;28;97027;-65
2022/03/12 03:18:50;;;;;;;5.72;5.10;;;17.70;45.80;;;;;;4969996;28;92565;-66
2022/03/12 03:21:17;;;;;;;5.15;4.65;;;17.70;45.80;;;;;;4968939;28;93000;-66
2022/03/12 03:23:44;;;;;;;5.80;4.80;;;17.70;45.90;;;;;;4969385;28;93134;-66
2022/03/12 03:26:11;;;;;;;5.47;4.90;;;17.70;45.90;;;;;;4969268;28;93974;-66
2022/03/12 03:28:37;;;;;;;5.70;4.82;;;17.70;45.80;;;;;;4969435;28;92866;-66
2022/03/12 03:31:06;;;;;;;6.30;5.20;;;17.70;45.80;;;;;;4970966;28;92259;-66
2022/03/12 03:33:32;;;;;;;6.78;5.20;;;17.70;45.80;;;;;;4968997;28;93155;-66
2022/03/12 03:35:57;;;;;;;7.18;5.38;;;17.70;45.80;;;;;;4969322;28;92969;-67
2022/03/12 03:38:24;;;;;;;6.03;5.10;;;17.70;45.80;;;;;;4968062;28;95213;-66
2022/03/12 03:40:50;;;;;;;6.90;4.97;;;17.70;45.80;;;;;;4969385;28;92984;-66
2022/03/12 03:43:20;;;;;;;6.22;5.30;;;17.70;45.90;;;;;;4970454;28;92995;-66
2022/03/12 03:45:49;;;;;;;6.07;5.00;;;17.70;45.80;;;;;;4972022;28;92981;-66
2022/03/12 03:48:18;;;;;;;7.38;5.07;;;17.70;45.80;;;;;;4971058;28;92974;-66
2022/03/12 03:50:46;;;;;;;5.68;5.05;;;17.70;45.80;;;;;;4972655;28;92529;-66
2022/03/12 03:53:14;;;;;;;6.43;4.97;;;17.70;45.90;;;;;;4972778;28;93736;-66
2022/03/12 03:55:42;;;;;;;5.72;5.13;;;17.70;45.80;;;;;;4973202;28;93384;-66
2022/03/12 03:58:08;;;;;;;5.93;5.05;;;17.70;45.90;;;;;;4972075;28;93031;-66
2022/03/12 04:00:34;;;;;;;5.70;5.00;;;17.60;45.80;;;;;;4972414;28;92851;-66
2022/03/12 04:03:04;;;;;;;6.47;5.15;;;17.70;45.80;;;;;;4971231;28;96064;-66
2022/03/12 04:05:34;;;;;;;6.05;4.78;;;17.70;45.90;;;;;;4971909;28;96793;-66
2022/03/12 04:08:00;;;;;;;6.07;5.10;;;17.60;45.90;;;;;;4972540;28;92748;-66
2022/03/12 04:10:29;;;;;;;8.05;5.32;;;17.60;45.90;;;;;;4972001;28;93263;-66
2022/03/12 04:12:57;;;;;;;6.13;5.38;;;17.60;45.90;;;;;;4972234;28;96450;-66
2022/03/12 04:15:23;;;;;;;6.70;5.32;;;17.60;45.90;;;;;;4971228;28;94847;-66
2022/03/12 04:17:53;;;;;;;6.13;5.28;;;17.60;45.80;;;;;;4972508;28;92528;-66
2022/03/12 04:20:20;;;;;;;6.20;5.13;;;17.60;45.90;;;;;;4972208;28;91702;-66
2022/03/12 04:22:51;;;;;;;6.15;5.30;;;17.60;45.90;;;;;;4971413;28;93198;-66
2022/03/12 04:25:18;;;;;;;5.93;5.32;;;17.60;45.90;;;;;;4972160;28;94723;-66
2022/03/12 04:27:45;;;;;;;5.78;5.18;;;17.60;45.90;;;;;;4970760;28;94917;-66
2022/03/12 04:30:12;;;;;;;5.93;5.32;;;17.60;45.90;;;;;;4970896;28;94057;-66
2022/03/12 04:32:39;;;;;;;5.35;4.85;;;17.60;45.90;;;;;;4970983;28;92840;-67
2022/03/12 04:35:05;;;;;;;6.57;5.32;;;17.60;46.00;;;;;;4970876;28;93735;-66
2022/03/12 04:37:32;;;;;;;5.82;5.15;;;17.60;46.00;;;;;;4971248;28;92963;-66
2022/03/12 04:39:58;;;;;;;5.57;5.00;;;17.50;45.90;;;;;;4972832;28;92913;-66
2022/03/12 04:42:24;;;;;;;5.57;5.00;;;17.50;46.00;;;;;;4971659;28;93036;-66
2022/03/12 04:44:50;;;;;;;6.43;5.22;;;17.50;46.00;;;;;;4971552;28;109314;-66
2022/03/12 04:47:19;;;;;;;6.20;4.57;;;17.50;46.00;;;;;;4973141;28;93100;-66
2022/03/12 04:49:46;;;;;;;6.07;5.00;;;17.50;46.00;;;;;;4970828;28;92875;-66
2022/03/12 04:52:12;;;;;;;6.40;5.35;;;17.50;46.00;;;;;;4971220;28;95546;-66
2022/03/12 04:54:38;;;;;;;5.97;5.10;;;17.50;46.00;;;;;;4970357;28;95352;-66
2022/03/12 04:57:04;;;;;;;5.95;5.25;;;17.50;46.00;;;;;;4954216;28;93142;-66
2022/03/12 04:59:30;;;;;;;6.70;5.07;;;17.50;46.00;;;;;;4971468;28;93350;-66
2022/03/12 05:01:57;;;;;;;6.25;5.40;;;17.50;46.00;;;;;;4971771;28;101733;-66
2022/03/12 05:04:23;;;;;;;6.15;4.85;;;17.50;46.00;;;;;;4971297;28;94980;-66
2022/03/12 05:06:48;;;;;;;6.15;5.45;;;17.50;46.00;;;;;;4972256;28;92995;-66
2022/03/12 05:09:14;;;;;;;6.05;5.10;;;17.50;46.10;;;;;;4972002;28;92311;-66
2022/03/12 05:11:40;;;;;;;5.85;5.00;;;17.50;46.00;;;;;;4971555;28;94183;-65
2022/03/12 05:14:06;;;;;;;5.47;4.78;;;17.50;46.00;;;;;;4972049;28;92742;-65
2022/03/12 05:16:34;;;;;;;8.10;5.47;;;17.50;46.00;;;;;;4971475;28;95406;-66
2022/03/12 05:19:00;;;;;;;5.90;4.70;;;17.50;46.00;;;;;;4972742;28;93050;-66
2022/03/12 05:21:26;;;;;;;5.57;4.72;;;17.50;46.10;;;;;;4970781;28;94596;-66
2022/03/12 05:23:52;;;;;;;6.82;5.20;;;17.50;46.20;;;;;;4971547;28;98295;-66
2022/03/12 05:26:18;;;;;;;5.75;5.05;;;17.50;46.20;;;;;;4971906;28;93026;-66
2022/03/12 05:28:44;;;;;;;5.47;4.88;;;17.50;46.10;;;;;;4970948;28;92639;-66
2022/03/12 05:31:10;;;;;;;6.97;5.22;;;17.50;46.10;;;;;;4971448;28;93096;-66
2022/03/12 05:33:36;;;;;;;5.97;5.20;;;17.50;46.10;;;;;;4971085;28;93717;-66
2022/03/12 05:36:03;;;;;;;6.13;5.03;;;17.50;46.00;;;;;;4971072;28;92580;-66
2022/03/12 05:38:31;;;;;;;6.00;4.95;;;17.50;46.00;;;;;;4971869;28;92586;-66
2022/03/12 05:40:57;;;;;;;6.10;5.13;;;17.50;46.10;;;;;;4969755;28;96831;-66
2022/03/12 05:43:24;;;;;;;6.20;5.18;;;17.50;46.00;;;;;;4971160;28;96265;-66
2022/03/12 05:45:53;;;;;;;7.70;5.07;;;17.40;46.00;;;;;;4971453;28;92928;-66
2022/03/12 05:48:20;;;;;;;6.50;5.50;;;17.40;46.10;;;;;;4969784;28;92655;-66
2022/03/12 05:50:50;;;;;;;10.93;5.35;;;17.40;46.20;;;;;;4970940;28;92986;-65
2022/03/12 05:53:19;;;;;;;7.72;5.57;;;17.40;46.10;;;;;;4971479;28;93870;-65
2022/03/12 05:55:47;;;;;;;9.18;5.22;;;17.40;46.10;;;;;;4970874;28;92547;-66
2022/03/12 05:58:17;;;;;;;7.65;5.18;;;17.40;46.00;;;;;;4971286;28;91764;-65
2022/03/12 06:00:44;;;;;;;6.82;5.20;;;17.50;46.10;;;;;;4970149;28;94369;-66
2022/03/12 06:03:12;;;;;;;6.03;5.32;;;17.50;46.20;;;;;;4969546;28;92810;-66
2022/03/12 06:05:43;;;;;;;6.80;5.30;;;17.50;46.20;;;;;;4968882;28;95090;-66
2022/03/12 06:08:12;;;;;;;6.75;4.85;;;17.60;46.40;;;;;;4969711;28;92745;-66
2022/03/12 06:10:38;;;;;;;7.85;5.22;;;17.60;47.30;;;;;;4969529;28;92950;-66
2022/03/12 06:13:05;;;;;;;6.10;4.97;;;17.70;46.30;;;;;;4970379;28;93915;-66
2022/03/12 06:15:31;;;;;;;6.20;4.93;;;17.70;46.20;;;;;;4970919;28;92953;-66
2022/03/12 06:17:57;;;;;;;5.30;4.80;;;17.80;45.80;;;;;;4970804;28;92949;-66
2022/03/12 06:20:23;;;;;;;5.47;4.97;;;17.90;46.00;;;;;;4970140;28;92982;-66
2022/03/12 06:22:51;;;;;;;8.13;4.70;;;17.90;45.70;;;;;;4970867;28;93875;-67
2022/03/12 06:25:18;;;;;;;5.72;5.07;;;18.00;45.70;;;;;;4970333;28;94312;-66
2022/03/12 06:27:47;;;;;;;6.97;5.28;;;18.00;45.60;;;;;;4969639;28;92491;-66
2022/03/12 06:30:14;;;;;;;6.20;4.85;;;18.10;45.70;;;;;;4968659;28;96568;-66
2022/03/12 06:32:42;;;;;;;6.55;5.00;;;18.20;45.70;;;;;;4970078;28;96920;-66
2022/03/12 06:35:09;;;;;;;6.55;5.25;;;18.20;45.60;;;;;;4970498;28;93013;-68
2022/03/12 06:37:36;;;;;;;10.15;5.00;;;18.30;45.80;;;;;;4969546;28;92806;-66
2022/03/12 06:40:02;;;;;;;10.93;4.93;;;18.30;46.00;;;;;;4970889;28;94368;-67
2022/03/12 06:42:34;;;;;;;14.35;5.47;;;18.30;45.20;;;;;;4969899;28;93278;-65
2022/03/12 06:45:00;;;;;;;8.85;5.47;;;18.30;44.90;;;;;;4969999;28;92614;-66
2022/03/12 06:47:30;;;;;;;10.90;5.63;;;18.30;44.70;;;;;;4970067;28;91934;-66
2022/03/12 06:49:59;;;;;;;14.55;5.38;;;18.30;44.60;;;;;;4970751;28;93652;-66
2022/03/12 06:52:27;;;;;;;11.27;5.40;;;18.30;44.60;;;;;;4970277;28;92536;-66
2022/03/12 06:54:53;;;;;;;10.82;5.32;;;18.30;44.70;;;;;;4972427;28;95153;-66
2022/03/12 06:57:20;;;;;;;10.93;5.07;;;18.30;44.80;;;;;;4971180;28;92635;-66
2022/03/12 06:59:46;;;;;;;8.93;4.82;;;18.30;44.90;;;;;;4969644;28;94771;-67
2022/03/12 07:02:12;;;;;;;9.52;5.10;;;18.40;45.00;;;;;;4969940;28;93259;-67
2022/03/12 07:04:38;;;;;;;8.77;5.07;;;18.40;45.10;;;;;;4968827;28;92861;-69
2022/03/12 07:07:04;;;;;;;11.52;4.85;;;18.40;45.20;;;;;;4970002;28;92920;-66
2022/03/12 07:09:29;;;;;;;9.90;4.95;;;18.40;45.30;;;;;;4969293;28;94425;-67
2022/03/12 07:11:58;;;;;;;9.93;4.82;;;18.40;45.30;;;;;;4969047;28;93574;-66
2022/03/12 07:14:27;;;;;;;9.57;5.13;;;18.40;45.30;;;;;;4969316;28;92668;-67
2022/03/12 07:16:55;;;;;;;7.63;5.03;;;18.40;45.30;;;;;;4970276;28;92479;-66
2022/03/12 07:19:22;;;;;;;8.90;5.22;;;18.50;45.40;;;;;;4970295;28;96547;-67
2022/03/12 07:21:49;;;;;;;9.05;4.80;;;18.40;45.40;;;;;;4972959;28;95759;-66
2022/03/12 07:24:15;;;;;;;9.68;4.57;;;18.40;45.40;;;;;;4972407;28;92976;-68
2022/03/12 07:26:41;;;;;;;7.38;4.95;;;18.40;45.40;;;;;;4972548;28;92627;-67
2022/03/12 07:29:07;;;;;;;6.07;4.50;;;18.40;45.40;;;;;;4971887;28;94343;-67
2022/03/12 07:31:33;;;;;;;9.00;5.00;;;18.40;45.40;;;;;;4972946;28;92930;-66
2022/03/12 07:33:58;;;;;;;6.28;4.55;;;18.40;45.40;;;;;;4972655;28;93916;-66
2022/03/12 07:36:24;;;;;;;7.38;5.15;;;18.30;45.40;;;;;;4972874;28;91845;-67
2022/03/12 07:38:49;;;;;;;9.50;4.50;;;18.30;45.30;;;;;;4971998;28;99737;-67
2022/03/12 07:41:15;;;;;;;7.63;5.00;;;18.30;45.40;;;;;;4972294;28;94512;-67
2022/03/12 07:43:41;;;;;;;11.25;4.80;;;18.30;45.40;;;;;;4971299;28;95204;-67
2022/03/12 07:46:07;;;;;;;10.07;5.07;;;18.30;45.50;;;;;;4962710;28;92706;-67
2022/03/12 07:48:33;;;;;;;7.65;4.50;;;18.30;45.40;;;;;;4971694;28;93186;-66
2022/03/12 07:51:01;;;;;;;7.13;4.88;;;18.30;45.50;;;;;;4972629;28;93091;-67
2022/03/12 07:53:27;;;;;;;7.60;4.63;;;18.30;45.60;;;;;;4972627;28;92557;-66
2022/03/12 07:55:53;;;;;;;8.18;4.85;;;18.30;45.50;;;;;;4972907;28;92871;-66
2022/03/12 07:58:18;;;;;;;9.93;4.93;;;18.20;45.50;;;;;;4971836;28;94089;-66
2022/03/12 08:00:44;;;;;;;7.85;4.22;;;18.20;45.50;;;;;;4972426;28;93900;-67
2022/03/12 08:03:09;;;;;;;7.32;4.78;;;18.20;45.50;;;;;;4972516;28;92555;-67
2022/03/12 08:05:37;;;;;;;8.00;4.80;;;18.20;45.50;;;;;;4972796;28;92995;-67
2022/03/12 08:08:04;;;;;;;7.28;4.20;;;18.20;45.60;;;;;;4970570;28;95283;-67
2022/03/12 08:11:24;;;;;;;9.02;5.00;;;18.20;45.60;;;;;;4972804;28;97046;-67
2022/03/12 08:13:15;;;;;;;6.22;4.63;;;18.20;45.70;;;;;;4971893;28;92990;-66
2022/03/12 08:15:41;;;;;;;10.20;4.57;;;18.10;45.70;;;;;;4972099;28;93231;-68
2022/03/12 08:18:06;;;;;;;8.02;4.90;;;18.10;45.70;;;;;;4972334;28;93629;-67
2022/03/12 08:20:33;;;;;;;10.27;5.13;;;18.10;45.70;;;;;;4971930;28;94464;-66
2022/03/12 08:22:59;;;;;;;7.32;4.80;;;18.10;45.80;;;;;;4971833;28;92570;-67
2022/03/12 08:25:24;;;;;;;8.52;4.78;;;18.10;45.80;;;;;;4971731;28;91802;-67
2022/03/12 08:27:50;;;;;;;10.05;4.80;;;18.10;45.90;;;;;;4971959;28;94186;-67
2022/03/12 08:30:16;;;;;;;6.05;4.45;;;18.00;45.80;;;;;;4970471;28;92709;-67
2022/03/12 08:32:42;;;;;;;7.70;4.93;;;18.10;45.90;;;;;;4971393;28;95570;-66
2022/03/12 08:35:09;;;;;;;7.78;4.78;;;18.00;45.80;;;;;;4972502;28;92834;-66
2022/03/12 08:37:35;;;;;;;8.23;4.45;;;18.00;46.00;;;;;;4972101;28;94649;-66
2022/03/12 08:40:06;;;;;;;8.20;4.65;;;18.00;46.00;;;;;;4975774;28;92790;-67
2022/03/12 08:42:31;;;;;;;6.25;4.70;;;18.00;46.00;;;;;;4972324;28;92473;-67
2022/03/12 08:44:58;;;;;;;6.28;4.47;;;18.00;46.00;;;;;;4971549;28;93851;-68
2022/03/12 08:47:23;;;;;;;7.00;4.57;;;18.00;47.10;;;;;;4971740;28;94586;-66
2022/03/12 08:49:49;;;;;;;7.15;4.63;;;18.00;46.10;;;;;;4971757;28;93903;-67
2022/03/12 08:52:15;;;;;;;6.70;4.90;;;18.00;46.10;;;;;;4971735;28;92697;-67
2022/03/12 08:54:40;;;;;;;6.40;4.60;;;18.00;46.20;;;;;;4971409;28;92536;-67
2022/03/12 08:57:07;;;;;;;5.57;4.53;;;17.90;46.10;;;;;;4969720;28;95860;-66
2022/03/12 08:59:33;;;;;;;7.85;4.63;;;17.90;46.20;;;;;;4971326;28;95167;-67
2022/03/12 09:01:59;;;;;;;7.85;4.75;;;17.90;46.20;;;;;;4971925;28;92485;-67
2022/03/12 09:04:24;;;;;;;7.50;5.00;;;17.90;46.30;;;;;;4971578;28;92970;-67
2022/03/12 09:06:50;;;;;;;7.82;4.53;;;17.90;46.30;;;;;;4971718;28;94657;-66
2022/03/12 09:09:16;;;;;;;6.22;4.97;;;17.90;46.30;;;;;;4970950;28;94160;-67
2022/03/12 09:11:42;;;;;;;8.77;4.97;;;17.90;46.40;;;;;;4971731;28;92481;-67
2022/03/12 09:14:08;;;;;;;6.43;4.80;;;17.90;46.40;;;;;;4971713;28;92036;-67
2022/03/12 09:16:36;;;;;;;6.45;4.22;;;17.90;46.40;;;;;;4970654;28;94895;-67
2022/03/12 09:19:02;;;;;;;7.55;4.60;;;17.90;46.50;;;;;;4970991;28;93972;-66
2022/03/12 09:21:28;;;;;;;6.10;4.75;;;17.90;46.50;;;;;;4969028;28;96745;-67
2022/03/12 09:23:54;;;;;;;5.80;3.95;;;17.90;46.50;;;;;;4971387;28;92774;-66
2022/03/12 09:26:22;;;;;;;5.50;4.60;;;17.90;46.50;;;;;;4969845;28;94223;-67
2022/03/12 09:28:48;;;;;;;5.35;4.30;;;17.90;46.50;;;;;;4970835;28;94259;-66
2022/03/12 09:31:14;;;;;;;6.25;4.35;;;17.90;46.50;;;;;;4970998;28;92537;-67
2022/03/12 09:33:40;;;;;;;6.07;4.30;;;17.90;46.50;;;;;;4971739;28;92926;-67
2022/03/12 09:36:08;;;;;;;5.03;4.20;;;17.90;46.50;;;;;;4969365;28;94187;-66
2022/03/12 09:38:33;;;;;;;8.43;4.85;;;17.90;46.50;;;;;;4971701;28;94618;-67
2022/03/12 09:40:59;;;;;;;9.60;4.78;;;17.90;46.50;;;;;;4971166;28;93217;-66
2022/03/12 09:43:26;;;;;;;7.00;4.15;;;18.00;46.60;;;;;;4970766;28;93042;-67
2022/03/12 09:45:51;;;;;;;7.75;4.43;;;18.00;46.60;;;;;;4969249;28;95529;-68
2022/03/12 09:48:18;;;;;;;7.53;4.60;;;18.00;46.70;;;;;;4971327;28;95117;-67
2022/03/12 09:50:43;;;;;;;7.95;4.70;;;18.00;46.70;;;;;;4970917;28;92591;-66
2022/03/12 09:53:09;;;;;;;8.25;4.50;;;18.00;46.60;;;;;;4970821;28;92919;-66
2022/03/12 09:55:35;;;;;;;6.65;4.53;;;18.00;46.60;;;;;;4970770;28;93447;-66
2022/03/12 09:58:00;;;;;;;6.70;4.40;;;18.10;46.70;;;;;;4970085;28;93780;-66
2022/03/12 10:00:27;;;;;;;7.40;4.32;;;18.00;46.60;;;;;;4970610;28;93088;-68
2022/03/12 10:02:53;;;;;;;5.53;3.95;;;18.10;46.70;;;;;;4970415;28;92271;-66
2022/03/12 10:05:18;;;;;;;5.75;4.00;;;18.10;46.70;;;;;;4969230;28;102099;-66
2022/03/12 10:07:44;;;;;;;6.78;4.20;;;18.10;46.80;;;;;;4971085;28;93108;-66
2022/03/12 10:10:15;;;;;;;5.43;4.47;;;18.10;46.70;;;;;;4968881;28;96833;-67
2022/03/12 10:12:42;;;;;;;6.82;4.00;;;18.10;46.70;;;;;;4970331;28;92577;-66
2022/03/12 10:15:10;;;;;;;6.63;4.05;;;18.10;46.80;;;;;;4970640;28;94469;-67
2022/03/12 10:17:36;;;;;;;6.20;3.78;;;18.10;46.70;;;;;;4969986;28;94023;-66
2022/03/12 10:20:01;;;;;;;6.38;4.22;;;18.10;46.90;;;;;;4971267;28;92913;-65
2022/03/12 10:22:27;;;;;;;4.57;3.53;;;18.10;46.80;;;;;;4971260;28;92610;-67
2022/03/12 10:24:53;;;;;;;6.95;3.80;;;18.10;46.80;;;;;;4970468;28;93031;-69
2022/03/12 10:27:19;;;;;;;4.85;3.58;;;18.10;46.80;;;;;;4969890;28;94482;-67
2022/03/12 10:29:46;;;;;;;5.97;3.92;;;18.10;46.80;;;;;;4970159;28;92620;-67
2022/03/12 10:32:30;;;;;;;5.13;3.40;;;18.10;46.80;;;;;;4970365;28;92849;-67
2022/03/12 10:34:59;;;;;;;5.25;3.75;;;18.10;46.90;;;;;;4968737;28;97049;-67
2022/03/12 10:37:31;;;;;;;5.35;3.72;;;18.10;47.00;;;;;;4969578;28;95788;-66
2022/03/12 10:40:24;;;;;;;6.20;3.65;;;18.10;46.90;;;;;;4971334;28;92819;-67
2022/03/12 10:42:56;;;;;;;6.57;3.35;;;18.10;46.90;;;;;;4970812;28;92620;-67
2022/03/12 10:45:26;;;;;;;;;;;18.10;47.00;;;;;;4969854;28;94198;-66
2022/03/12 10:47:57;;;;;;;5.82;3.13;;;18.10;46.90;;;;;;4971508;28;93155;-67
2022/03/12 10:50:25;;;;;;;5.15;3.50;;;18.10;47.00;;;;;;4970163;28;92531;-67
2022/03/12 10:52:53;;;;;;;4.95;3.70;;;18.10;47.00;;;;;;4968663;28;91789;-67
2022/03/12 10:55:24;;;;;;;5.28;3.55;;;18.10;47.00;;;;;;4969366;28;92911;-68
2022/03/12 10:57:57;;;;;;;4.93;3.35;;;18.10;47.00;;;;;;4969264;28;94135;-67
2022/03/12 11:00:25;;;;;;;4.90;3.45;;;18.10;47.00;;;;;;4968235;28;95019;-67
2022/03/12 11:02:57;;;;;;;5.40;3.90;;;18.10;47.00;;;;;;4969583;28;92880;-67
2022/03/12 11:05:34;;;;;;;4.25;3.28;;;18.10;46.90;;;;;;4969504;28;93570;-67
2022/03/12 11:08:27;;;;;;;5.53;3.38;;;18.10;47.10;;;;;;4969902;28;94737;-67
2022/03/12 11:10:56;;;;;;;5.00;3.03;;;18.10;47.00;;;;;;4966175;28;92687;-67
2022/03/12 11:13:49;;;;;;;5.40;3.47;;;18.10;47.10;;;;;;4970184;28;92754;-67
2022/03/12 11:16:32;;;;;;;4.78;3.38;;;18.10;47.10;;;;;;4969780;28;94210;-67
2022/03/12 11:19:10;;;;;;;5.00;3.03;;;18.10;48.10;;;;;;4969900;28;94228;-69
2022/03/12 11:21:51;;;;;;;4.45;3.00;;;18.10;47.20;;;;;;4969002;28;92643;-67
2022/03/12 11:24:22;;;;;;;5.00;3.35;;;18.10;47.20;;;;;;4969030;28;92527;-67
2022/03/12 11:27:04;;;;;;;4.15;3.05;;;18.10;47.30;;;;;;4967813;28;96127;-67
2022/03/12 11:29:30;;;;;;;5.88;3.22;;;18.10;47.30;;;;;;4950908;28;95771;-67
2022/03/12 11:32:05;;;;;;;4.13;3.15;;;18.10;47.30;;;;;;4969495;28;92711;-67
2022/03/12 11:34:42;;;;;;;3.40;2.90;;;18.10;47.30;;;;;;4968824;28;92578;-67
2022/03/12 11:37:13;;;;;;;4.78;3.30;;;18.10;47.30;;;;;;4968128;28;94681;-67
2022/03/12 11:39:42;;;;;;;4.28;2.80;;;18.10;47.40;;;;;;4969119;28;94204;-67
2022/03/12 11:42:16;;;;;;;3.75;2.88;;;18.10;47.30;;;;;;4968397;28;93054;-67
2022/03/12 11:44:48;;;;;;;3.97;2.97;;;18.10;47.30;;;;;;4970172;28;92017;-66
2022/03/12 11:47:17;;;;;;;4.32;2.83;;;18.10;47.40;;;;;;4968927;28;94062;-66
2022/03/12 11:49:43;;;;;;;5.63;3.13;;;18.10;47.40;;;;;;4969320;28;94302;-67
2022/03/12 11:52:09;;;;;;;3.72;2.75;;;18.10;47.40;;;;;;4967668;28;94986;-67
2022/03/12 11:54:40;;;;;;;4.32;2.80;;;18.10;47.40;;;;;;4969027;28;92985;-67
2022/03/12 11:57:07;;;;;;;3.20;2.58;;;18.10;47.40;;;;;;4968764;28;95132;-67
2022/03/12 11:59:34;;;;;;;3.85;2.70;;;18.10;47.30;;;;;;4969776;28;93797;-67
2022/03/12 12:02:29;;;;;;;4.47;2.75;;;18.10;47.40;;;;;;4969852;28;92933;-68
2022/03/12 12:04:56;;;;;;;3.97;2.78;;;18.10;47.30;;;;;;4961459;28;93233;-67
2022/03/12 12:07:31;;;;;;;4.53;2.85;;;18.10;47.30;;;;;;4972626;28;93258;-67
2022/03/12 12:09:57;;;;;;;3.30;2.58;;;18.10;47.30;;;;;;4972384;28;93809;-67
2022/03/12 12:12:26;;;;;;;4.07;2.65;;;18.10;47.40;;;;;;4972270;28;97276;-68
2022/03/12 12:14:53;;;;;;;3.08;2.50;;;18.10;47.40;;;;;;4971666;28;92567;-67
2022/03/12 12:17:19;;;;;;;3.20;2.60;;;18.10;47.40;;;;;;4970730;28;97341;-67
2022/03/12 12:19:44;;;;;;;4.28;2.80;;;18.10;47.40;;;;;;4971488;28;95187;-67
2022/03/12 12:22:13;;;;;;;3.60;2.67;;;18.10;47.40;;;;;;4972420;28;94031;-67
2022/03/12 12:24:39;;;;;;;4.07;2.70;;;18.20;47.40;;;;;;4972331;28;92552;-67
2022/03/12 12:27:10;;;;;;;4.03;2.60;;;18.20;47.40;;;;;;4972368;28;93485;-67
2022/03/12 12:29:54;;;;;;;3.85;2.53;;;18.20;47.40;;;;;;4972069;28;93717;-66
2022/03/12 12:32:29;;;;;;;4.07;2.70;;;18.20;47.40;;;;;;4972263;28;93114;-67
2022/03/12 12:35:04;;;;;;;3.80;2.65;;;18.20;47.40;;;;;;4973964;28;92294;-67
2022/03/12 12:37:57;;;;;;;4.20;2.58;;;18.20;47.40;;;;;;4972726;28;94501;-67
2022/03/12 12:40:42;;;;;;;3.30;2.45;;;18.20;47.40;;;;;;4972297;28;94099;-67
2022/03/12 12:43:12;;;;;;;4.32;2.72;;;18.20;47.50;;;;;;4971185;28;94860;-68
2022/03/12 12:46:04;;;;;;;11.88;2.88;;;18.20;47.40;;;;;;4971082;28;93002;-68
2022/03/12 12:48:34;;;;;;;24.45;3.53;;;18.20;47.40;;;;;;4971354;28;93942;-67
2022/03/12 12:51:22;;;;;;;11.65;3.10;;;18.20;47.90;;;;;;4971516;28;92936;-67